Hébergeur de fichiers indépendant

8341084 track 1518888940 272.gpx

À propos

Type de fichier
Fichier GPX de 28 Ko (application/xml)
Confidentialité
Fichier public, envoyé le 17 février 2018 à 14:52, depuis l'adresse IP 77.151.x.x (France)
Sécurité
Ne contient aucun Virus ou Malware connus - Dernière vérification: hier
Statistiques
La présente page de téléchargement a été vue 166 fois depuis l'envoi du fichier
Page de téléchargement

Aperçu du fichier


<?xml version="1.0" encoding="UTF-8" ?>
<gpx version="1.0" xmlns:xsi="http://www.w3.org/2001/XMLSchema-instance"
	xmlns="http://www.topografix.com/GPX/1/0"
	xsi:schemaLocation="http://www.topografix.com/GPX/1/0 http://www.topografix.com/GPX/1/0/gpx.xsd"
	creator="https://www.openrunner.com">	<trk>
					<name>8341084-marche de mars 2018</name>
					<trkseg>
				<trkpt lat="47.748760" lon="3.485470">
					<ele>179</ele>
					<time>2018-02-17T14:31:40Z</time>
				</trkpt>
				<trkpt lat="47.748940" lon="3.484880">
					<ele>179</ele>
					<time>2018-02-17T14:32:40Z</time>
				</trkpt>
				<trkpt lat="47.749340" lon="3.485350">
					<ele>177</ele>
					<time>2018-02-17T14:33:40Z</time>
				</trkpt>
				<trkpt lat="47.750560" lon="3.487060">
					<ele>175</ele>
					<time>2018-02-17T14:34:40Z</time>
				</trkpt>
				<trkpt lat="47.750730" lon="3.487420">
					<ele>175</ele>
					<time>2018-02-17T14:35:40Z</time>
				</trkpt>
				<trkpt lat="47.751030" lon="3.487600">
					<ele>174</ele>
					<time>2018-02-17T14:36:40Z</time>
				</trkpt>
				<trkpt lat="47.754920" lon="3.482490">
					<ele>142</ele>
					<time>2018-02-17T14:37:40Z</time>
				</trkpt>
				<trkpt lat="47.755660" lon="3.484380">
					<ele>140</ele>
					<time>2018-02-17T14:38:40Z</time>
				</trkpt>
				<trkpt lat="47.756750" lon="3.486570">
					<ele>137</ele>
					<time>2018-02-17T14:39:40Z</time>
				</trkpt>
				<trkpt lat="47.757740" lon="3.488300">
					<ele>137</ele>
					<time>2018-02-17T14:40:40Z</time>
				</trkpt>
				<trkpt lat="47.756270" lon="3.490200">
					<ele>150</ele>
					<time>2018-02-17T14:41:40Z</time>
				</trkpt>
				<trkpt lat="47.755850" lon="3.490810">
					<ele>154</ele>
					<time>2018-02-17T14:42:40Z</time>
				</trkpt>
				<trkpt lat="47.755580" lon="3.491080">
					<ele>156</ele>
					<time>2018-02-17T14:43:40Z</time>
				</trkpt>
				<trkpt lat="47.755610" lon="3.491450">
					<ele>157</ele>
					<time>2018-02-17T14:44:40Z</time>
				</trkpt>
				<trkpt lat="47.755450" lon="3.492480">
					<ele>159</ele>
					<time>2018-02-17T14:45:40Z</time>
				</trkpt>
				<trkpt lat="47.755650" lon="3.493610">
					<ele>158</ele>
					<time>2018-02-17T14:46:40Z</time>
				</trkpt>
				<trkpt lat="47.755630" lon="3.493820">
					<ele>158</ele>
					<time>2018-02-17T14:47:40Z</time>
				</trkpt>
				<trkpt lat="47.755350" lon="3.494580">
					<ele>159</ele>
					<time>2018-02-17T14:48:40Z</time>
				</trkpt>
				<trkpt lat="47.755230" lon="3.494440">
					<ele>160</ele>
					<time>2018-02-17T14:49:40Z</time>
				</trkpt>
				<trkpt lat="47.754870" lon="3.493650">
					<ele>163</ele>
					<time>2018-02-17T14:50:40Z</time>
				</trkpt>
				<trkpt lat="47.754220" lon="3.492600">
					<ele>166</ele>
					<time>2018-02-17T14:51:40Z</time>
				</trkpt>
				<trkpt lat="47.754070" lon="3.493110">
					<ele>168</ele>
					<time>2018-02-17T14:52:40Z</time>
				</trkpt>
				<trkpt lat="47.753870" lon="3.493350">
					<ele>169</ele>
					<time>2018-02-17T14:53:40Z</time>
				</trkpt>
				<trkpt lat="47.753470" lon="3.493800">
					<ele>169</ele>
					<time>2018-02-17T14:54:40Z</time>
				</trkpt>
				<trkpt lat="47.752900" lon="3.494460">
					<ele>170</ele>
					<time>2018-02-17T14:55:40Z</time>
				</trkpt>
				<trkpt lat="47.752830" lon="3.494260">
					<ele>171</ele>
					<time>2018-02-17T14:56:40Z</time>
				</trkpt>
				<trkpt lat="47.752800" lon="3.493410">
					<ele>171</ele>
					<time>2018-02-17T14:57:40Z</time>
				</trkpt>
				<trkpt lat="47.752290" lon="3.492640">
					<ele>172</ele>
					<time>2018-02-17T14:58:40Z</time>
				</trkpt>
				<trkpt lat="47.751450" lon="3.494150">
					<ele>172</ele>
					<time>2018-02-17T14:59:40Z</time>
				</trkpt>
				<trkpt lat="47.751290" lon="3.494170">
					<ele>172</ele>
					<time>2018-02-17T15:00:40Z</time>
				</trkpt>
				<trkpt lat="47.750470" lon="3.493380">
					<ele>172</ele>
					<time>2018-02-17T15:01:40Z</time>
				</trkpt>
				<trkpt lat="47.749810" lon="3.492160">
					<ele>172</ele>
					<time>2018-02-17T15:02:40Z</time>
				</trkpt>
				<trkpt lat="47.749730" lon="3.489760">
					<ele>175</ele>
					<time>2018-02-17T15:03:40Z</time>
				</trkpt>
				<trkpt lat="47.749770" lon="3.489630">
					<ele>175</ele>
					<time>2018-02-17T15:04:40Z</time>
				</trkpt>
				<trkpt lat="47.749810" lon="3.489610">
					<ele>175</ele>
					<time>2018-02-17T15:05:40Z</time>
				</trkpt>
				<trkpt lat="47.749870" lon="3.489460">
					<ele>175</ele>
					<time>2018-02-17T15:06:40Z</time>
				</trkpt>
				<trkpt lat="47.750300" lon="3.488490">
					<ele>176</ele>
					<time>2018-02-17T15:07:40Z</time>
				</trkpt>
				<trkpt lat="47.750470" lon="3.488030">
					<ele>176</ele>
					<time>2018-02-17T15:08:40Z</time>
				</trkpt>
				<trkpt lat="47.750490" lon="3.488000">
					<ele>176</ele>
					<time>2018-02-17T15:09:40Z</time>
				</trkpt>
				<trkpt lat="47.750710" lon="3.487420">
					<ele>175</ele>
					<time>2018-02-17T15:10:40Z</time>
				</trkpt>
				<trkpt lat="47.751020" lon="3.487590">
					<ele>174</ele>
					<time>2018-02-17T15:11:40Z</time>
				</trkpt>
				<trkpt lat="47.754930" lon="3.482490">
					<ele>142</ele>
					<time>2018-02-17T15:12:40Z</time>
				</trkpt>
				<trkpt lat="47.755700" lon="3.484430">
					<ele>139</ele>
					<time>2018-02-17T15:13:40Z</time>
				</trkpt>
				<trkpt lat="47.756690" lon="3.486500">
					<ele>138</ele>
					<time>2018-02-17T15:14:40Z</time>
				</trkpt>
				<trkpt lat="47.757700" lon="3.488280">
					<ele>137</ele>
					<time>2018-02-17T15:15:40Z</time>
				</trkpt>
				<trkpt lat="47.758540" lon="3.489540">
					<ele>135</ele>
					<time>2018-02-17T15:16:40Z</time>
				</trkpt>
				<trkpt lat="47.759180" lon="3.490520">
					<ele>136</ele>
					<time>2018-02-17T15:17:40Z</time>
				</trkpt>
				<trkpt lat="47.762490" lon="3.495690">
					<ele>137</ele>
					<time>2018-02-17T15:18:40Z</time>
				</trkpt>
				<trkpt lat="47.763290" lon="3.496900">
					<ele>137</ele>
					<time>2018-02-17T15:19:40Z</time>
				</trkpt>
				<trkpt lat="47.763440" lon="3.496950">
					<ele>136</ele>
					<time>2018-02-17T15:20:40Z</time>
				</trkpt>
				<trkpt lat="47.763520" lon="3.497050">
					<ele>136</ele>
					<time>2018-02-17T15:21:40Z</time>
				</trkpt>
				<trkpt lat="47.764630" lon="3.498830">
					<ele>138</ele>
					<time>2018-02-17T15:22:40Z</time>
				</trkpt>
				<trkpt lat="47.765420" lon="3.500010">
					<ele>139</ele>
					<time>2018-02-17T15:23:40Z</time>
				</trkpt>
				<trkpt lat="47.766090" lon="3.500900">
					<ele>138</ele>
					<time>2018-02-17T15:24:40Z</time>
				</trkpt>
				<trkpt lat="47.766270" lon="3.501200">
					<ele>137</ele>
					<time>2018-02-17T15:25:40Z</time>
				</trkpt>
				<trkpt lat="47.766800" lon="3.502180">
					<ele>137</ele>
					<time>2018-02-17T15:26:40Z</time>
				</trkpt>
				<trkpt lat="47.767560" lon="3.503370">
					<ele>138</ele>
					<time>2018-02-17T15:27:40Z</time>
				</trkpt>
				<trkpt lat="47.767530" lon="3.503510">
					<ele>139</ele>
					<time>2018-02-17T15:28:40Z</time>
				</trkpt>
				<trkpt lat="47.768090" lon="3.504370">
					<ele>139</ele>
					<time>2018-02-17T15:29:40Z</time>
				</trkpt>
				<trkpt lat="47.768660" lon="3.505520">
					<ele>140</ele>
					<time>2018-02-17T15:30:40Z</time>
				</trkpt>
				<trkpt lat="47.769780" lon="3.505710">
					<ele>136</ele>
					<time>2018-02-17T15:31:40Z</time>
				</trkpt>
				<trkpt lat="47.770560" lon="3.505420">
					<ele>133</ele>
					<time>2018-02-17T15:32:40Z</time>
				</trkpt>
				<trkpt lat="47.771220" lon="3.504750">
					<ele>129</ele>
					<time>2018-02-17T15:33:40Z</time>
				</trkpt>
				<trkpt lat="47.772250" lon="3.503540">
					<ele>124</ele>
					<time>2018-02-17T15:34:40Z</time>
				</trkpt>
				<trkpt lat="47.772480" lon="3.503480">
					<ele>124</ele>
					<time>2018-02-17T15:35:40Z</time>
				</trkpt>
				<trkpt lat="47.773320" lon="3.503560">
					<ele>125</ele>
					<time>2018-02-17T15:36:40Z</time>
				</trkpt>
				<trkpt lat="47.773430" lon="3.503500">
					<ele>125</ele>
					<time>2018-02-17T15:37:40Z</time>
				</trkpt>
				<trkpt lat="47.773930" lon="3.502660">
					<ele>126</ele>
					<time>2018-02-17T15:38:40Z</time>
				</trkpt>
				<trkpt lat="47.774440" lon="3.504780">
					<ele>123</ele>
					<time>2018-02-17T15:39:40Z</time>
				</trkpt>
				<trkpt lat="47.774690" lon="3.505590">
					<ele>124</ele>
					<time>2018-02-17T15:40:40Z</time>
				</trkpt>
				<trkpt lat="47.774940" lon="3.506250">
					<ele>125</ele>
					<time>2018-02-17T15:41:40Z</time>
				</trkpt>
				<trkpt lat="47.775110" lon="3.508160">
					<ele>129</ele>
					<time>2018-02-17T15:42:40Z</time>
				</trkpt>
				<trkpt lat="47.775160" lon="3.509010">
					<ele>133</ele>
					<time>2018-02-17T15:43:40Z</time>
				</trkpt>
				<trkpt lat="47.775340" lon="3.510030">
					<ele>135</ele>
					<time>2018-02-17T15:44:40Z</time>
				</trkpt>
				<trkpt lat="47.775430" lon="3.510680">
					<ele>138</ele>
					<time>2018-02-17T15:45:40Z</time>
				</trkpt>
				<trkpt lat="47.775800" lon="3.513450">
					<ele>147</ele>
					<time>2018-02-17T15:46:40Z</time>
				</trkpt>
				<trkpt lat="47.775880" lon="3.513610">
					<ele>147</ele>
					<time>2018-02-17T15:47:40Z</time>
				</trkpt>
				<trkpt lat="47.776120" lon="3.513850">
					<ele>147</ele>
					<time>2018-02-17T15:48:40Z</time>
				</trkpt>
				<trkpt lat="47.776190" lon="3.514010">
					<ele>147</ele>
					<time>2018-02-17T15:49:40Z</time>
				</trkpt>
				<trkpt lat="47.776500" lon="3.515010">
					<ele>151</ele>
					<time>2018-02-17T15:50:40Z</time>
				</trkpt>
				<trkpt lat="47.776520" lon="3.515680">
					<ele>153</ele>
					<time>2018-02-17T15:51:40Z</time>
				</trkpt>
				<trkpt lat="47.776470" lon="3.516070">
					<ele>154</ele>
					<time>2018-02-17T15:52:40Z</time>
				</trkpt>
				<trkpt lat="47.776360" lon="3.516570">
					<ele>154</ele>
					<time>2018-02-17T15:53:40Z</time>
				</trkpt>
				<trkpt lat="47.775510" lon="3.514990">
					<ele>150</ele>
					<time>2018-02-17T15:54:40Z</time>
				</trkpt>
				<trkpt lat="47.774740" lon="3.513640">
					<ele>148</ele>
					<time>2018-02-17T15:55:40Z</time>
				</trkpt>
				<trkpt lat="47.774420" lon="3.513210">
					<ele>148</ele>
					<time>2018-02-17T15:56:40Z</time>
				</trkpt>
				<trkpt lat="47.773880" lon="3.512550">
					<ele>147</ele>
					<time>2018-02-17T15:57:40Z</time>
				</trkpt>
				<trkpt lat="47.771040" lon="3.509800">
					<ele>144</ele>
					<time>2018-02-17T15:58:40Z</time>
				</trkpt>
				<trkpt lat="47.770340" lon="3.508880">
					<ele>140</ele>
					<time>2018-02-17T15:59:40Z</time>
				</trkpt>
				<trkpt lat="47.769860" lon="3.508050">
					<ele>139</ele>
					<time>2018-02-17T16:00:40Z</time>
				</trkpt>
				<trkpt lat="47.768720" lon="3.505570">
					<ele>140</ele>
					<time>2018-02-17T16:01:40Z</time>
				</trkpt>
				<trkpt lat="47.768190" lon="3.505400">
					<ele>142</ele>
					<time>2018-02-17T16:02:40Z</time>
				</trkpt>
				<trkpt lat="47.767610" lon="3.505360">
					<ele>145</ele>
					<time>2018-02-17T16:03:40Z</time>
				</trkpt>
				<trkpt lat="47.767210" lon="3.505440">
					<ele>147</ele>
					<time>2018-02-17T16:04:40Z</time>
				</trkpt>
				<trkpt lat="47.766440" lon="3.506000">
					<ele>150</ele>
					<time>2018-02-17T16:05:40Z</time>
				</trkpt>
				<trkpt lat="47.765810" lon="3.507500">
					<ele>157</ele>
					<time>2018-02-17T16:06:40Z</time>
				</trkpt>
				<trkpt lat="47.765580" lon="3.507800">
					<ele>158</ele>
					<time>2018-02-17T16:07:40Z</time>
				</trkpt>
				<trkpt lat="47.764870" lon="3.507220">
					<ele>160</ele>
					<time>2018-02-17T16:08:40Z</time>
				</trkpt>
				<trkpt lat="47.764390" lon="3.508020">
					<ele>163</ele>
					<time>2018-02-17T16:09:40Z</time>
				</trkpt>
				<trkpt lat="47.764250" lon="3.508620">
					<ele>164</ele>
					<time>2018-02-17T16:10:40Z</time>
				</trkpt>
				<trkpt lat="47.764110" lon="3.508670">
					<ele>164</ele>
					<time>2018-02-17T16:11:40Z</time>
				</trkpt>
				<trkpt lat="47.764150" lon="3.510050">
					<ele>162</ele>
					<time>2018-02-17T16:12:40Z</time>
				</trkpt>
				<trkpt lat="47.763370" lon="3.510370">
					<ele>164</ele>
					<time>2018-02-17T16:13:40Z</time>
				</trkpt>
				<trkpt lat="47.763240" lon="3.510370">
					<ele>164</ele>
					<time>2018-02-17T16:14:40Z</time>
				</trkpt>
				<trkpt lat="47.762720" lon="3.510260">
					<ele>167</ele>
					<time>2018-02-17T16:15:40Z</time>
				</trkpt>
				<trkpt lat="47.762640" lon="3.511400">
					<ele>164</ele>
					<time>2018-02-17T16:16:40Z</time>
				</trkpt>
				<trkpt lat="47.762600" lon="3.511350">
					<ele>165</ele>
					<time>2018-02-17T16:17:40Z</time>
				</trkpt>
				<trkpt lat="47.761470" lon="3.510540">
					<ele>169</ele>
					<time>2018-02-17T16:18:40Z</time>
				</trkpt>
				<trkpt lat="47.759850" lon="3.510520">
					<ele>175</ele>
					<time>2018-02-17T16:19:40Z</time>
				</trkpt>
				<trkpt lat="47.759930" lon="3.510060">
					<ele>175</ele>
					<time>2018-02-17T16:20:40Z</time>
				</trkpt>
				<trkpt lat="47.758840" lon="3.510490">
					<ele>178</ele>
					<time>2018-02-17T16:21:40Z</time>
				</trkpt>
				<trkpt lat="47.758450" lon="3.511080">
					<ele>179</ele>
					<time>2018-02-17T16:22:40Z</time>
				</trkpt>
				<trkpt lat="47.758450" lon="3.511050">
					<ele>179</ele>
					<time>2018-02-17T16:23:40Z</time>
				</trkpt>
				<trkpt lat="47.758840" lon="3.510440">
					<ele>178</ele>
					<time>2018-02-17T16:24:40Z</time>
				</trkpt>
				<trkpt lat="47.759940" lon="3.510050">
					<ele>175</ele>
					<time>2018-02-17T16:25:40Z</time>
				</trkpt>
				<trkpt lat="47.759850" lon="3.510510">
					<ele>175</ele>
					<time>2018-02-17T16:26:40Z</time>
				</trkpt>
				<trkpt lat="47.761470" lon="3.510550">
					<ele>169</ele>
					<time>2018-02-17T16:27:40Z</time>
				</trkpt>
				<trkpt lat="47.762680" lon="3.511420">
					<ele>164</ele>
					<time>2018-02-17T16:28:40Z</time>
				</trkpt>
				<trkpt lat="47.762720" lon="3.511510">
					<ele>164</ele>
					<time>2018-02-17T16:29:40Z</time>
				</trkpt>
				<trkpt lat="47.763030" lon="3.511650">
					<ele>162</ele>
					<time>2018-02-17T16:30:40Z</time>
				</trkpt>
				<trkpt lat="47.763280" lon="3.511820">
					<ele>162</ele>
					<time>2018-02-17T16:31:40Z</time>
				</trkpt>
				<trkpt lat="47.763810" lon="3.511710">
					<ele>160</ele>
					<time>2018-02-17T16:32:40Z</time>
				</trkpt>
				<trkpt lat="47.764440" lon="3.511410">
					<ele>158</ele>
					<time>2018-02-17T16:33:40Z</time>
				</trkpt>
				<trkpt lat="47.765560" lon="3.511170">
					<ele>154</ele>
					<time>2018-02-17T16:34:40Z</time>
				</trkpt>
				<trkpt lat="47.765620" lon="3.513060">
					<ele>162</ele>
					<time>2018-02-17T16:35:40Z</time>
				</trkpt>
				<trkpt lat="47.765580" lon="3.513640">
					<ele>165</ele>
					<time>2018-02-17T16:36:40Z</time>
				</trkpt>
				<trkpt lat="47.765320" lon="3.515510">
					<ele>174</ele>
					<time>2018-02-17T16:37:40Z</time>
				</trkpt>
				<trkpt lat="47.765230" lon="3.516700">
					<ele>176</ele>
					<time>2018-02-17T16:38:40Z</time>
				</trkpt>
				<trkpt lat="47.765140" lon="3.517400">
					<ele>178</ele>
					<time>2018-02-17T16:39:40Z</time>
				</trkpt>
				<trkpt lat="47.765030" lon="3.518110">
					<ele>180</ele>
					<time>2018-02-17T16:40:40Z</time>
				</trkpt>
				<trkpt lat="47.764990" lon="3.518980">
					<ele>183</ele>
					<time>2018-02-17T16:41:40Z</time>
				</trkpt>
				<trkpt lat="47.765050" lon="3.519700">
					<ele>184</ele>
					<time>2018-02-17T16:42:40Z</time>
				</trkpt>
				<trkpt lat="47.765100" lon="3.520490">
					<ele>186</ele>
					<time>2018-02-17T16:43:40Z</time>
				</trkpt>
				<trkpt lat="47.764100" lon="3.518970">
					<ele>187</ele>
					<time>2018-02-17T16:44:40Z</time>
				</trkpt>
				<trkpt lat="47.762740" lon="3.524360">
					<ele>204</ele>
					<time>2018-02-17T16:45:40Z</time>
				</trkpt>
				<trkpt lat="47.762530" lon="3.524920">
					<ele>205</ele>
					<time>2018-02-17T16:46:40Z</time>
				</trkpt>
				<trkpt lat="47.763250" lon="3.525570">
					<ele>205</ele>
					<time>2018-02-17T16:47:40Z</time>
				</trkpt>
				<trkpt lat="47.764240" lon="3.526110">
					<ele>204</ele>
					<time>2018-02-17T16:48:40Z</time>
				</trkpt>
				<trkpt lat="47.764100" lon="3.528370">
					<ele>199</ele>
					<time>2018-02-17T16:49:40Z</time>
				</trkpt>
				<trkpt lat="47.763520" lon="3.531290">
					<ele>194</ele>
					<time>2018-02-17T16:50:40Z</time>
				</trkpt>
				<trkpt lat="47.763820" lon="3.531540">
					<ele>193</ele>
					<time>2018-02-17T16:51:40Z</time>
				</trkpt>
				<trkpt lat="47.762830" lon="3.535100">
					<ele>185</ele>
					<time>2018-02-17T16:52:40Z</time>
				</trkpt>
				<trkpt lat="47.762660" lon="3.536100">
					<ele>181</ele>
					<time>2018-02-17T16:53:40Z</time>
				</trkpt>
				<trkpt lat="47.762410" lon="3.537880">
					<ele>178</ele>
					<time>2018-02-17T16:54:40Z</time>
				</trkpt>
				<trkpt lat="47.762220" lon="3.538930">
					<ele>174</ele>
					<time>2018-02-17T16:55:40Z</time>
				</trkpt>
				<trkpt lat="47.762110" lon="3.540460">
					<ele>168</ele>
					<time>2018-02-17T16:56:40Z</time>
				</trkpt>
				<trkpt lat="47.762150" lon="3.540680">
					<ele>167</ele>
					<time>2018-02-17T16:57:40Z</time>
				</trkpt>
				<trkpt lat="47.761840" lon="3.542450">
					<ele>162</ele>
					<time>2018-02-17T16:58:40Z</time>
				</trkpt>
				<trkpt lat="47.761690" lon="3.543180">
					<ele>159</ele>
					<time>2018-02-17T16:59:40Z</time>
				</trkpt>
				<trkpt lat="47.761550" lon="3.544010">
					<ele>155</ele>
					<time>2018-02-17T17:00:40Z</time>
				</trkpt>
				<trkpt lat="47.761510" lon="3.545220">
					<ele>148</ele>
					<time>2018-02-17T17:01:40Z</time>
				</trkpt>
				<trkpt lat="47.761460" lon="3.545630">
					<ele>145</ele>
					<time>2018-02-17T17:02:40Z</time>
				</trkpt>
				<trkpt lat="47.761290" lon="3.546920">
					<ele>137</ele>
					<time>2018-02-17T17:03:40Z</time>
				</trkpt>
				<trkpt lat="47.760880" lon="3.546810">
					<ele>136</ele>
					<time>2018-02-17T17:04:40Z</time>
				</trkpt>
				<trkpt lat="47.760480" lon="3.546930">
					<ele>137</ele>
					<time>2018-02-17T17:05:40Z</time>
				</trkpt>
				<trkpt lat="47.760080" lon="3.546940">
					<ele>139</ele>
					<time>2018-02-17T17:06:40Z</time>
				</trkpt>
				<trkpt lat="47.759480" lon="3.546730">
					<ele>141</ele>
					<time>2018-02-17T17:07:40Z</time>
				</trkpt>
				<trkpt lat="47.758520" lon="3.546160">
					<ele>143</ele>
					<time>2018-02-17T17:08:40Z</time>
				</trkpt>
				<trkpt lat="47.756560" lon="3.545000">
					<ele>146</ele>
					<time>2018-02-17T17:09:40Z</time>
				</trkpt>
				<trkpt lat="47.755610" lon="3.544340">
					<ele>145</ele>
					<time>2018-02-17T17:10:40Z</time>
				</trkpt>
				<trkpt lat="47.754730" lon="3.543510">
					<ele>149</ele>
					<time>2018-02-17T17:11:40Z</time>
				</trkpt>
				<trkpt lat="47.754350" lon="3.543000">
					<ele>149</ele>
					<time>2018-02-17T17:12:40Z</time>
				</trkpt>
				<trkpt lat="47.754080" lon="3.542460">
					<ele>151</ele>
					<time>2018-02-17T17:13:40Z</time>
				</trkpt>
				<trkpt lat="47.754010" lon="3.542100">
					<ele>151</ele>
					<time>2018-02-17T17:14:40Z</time>
				</trkpt>
				<trkpt lat="47.754030" lon="3.541870">
					<ele>152</ele>
					<time>2018-02-17T17:15:40Z</time>
				</trkpt>
				<trkpt lat="47.753830" lon="3.540600">
					<ele>150</ele>
					<time>2018-02-17T17:16:40Z</time>
				</trkpt>
				<trkpt lat="47.753730" lon="3.540480">
					<ele>150</ele>
					<time>2018-02-17T17:17:40Z</time>
				</trkpt>
				<trkpt lat="47.752990" lon="3.540260">
					<ele>148</ele>
					<time>2018-02-17T17:18:40Z</time>
				</trkpt>
				<trkpt lat="47.752790" lon="3.539740">
					<ele>151</ele>
					<time>2018-02-17T17:19:40Z</time>
				</trkpt>
				<trkpt lat="47.752500" lon="3.539200">
					<ele>156</ele>
					<time>2018-02-17T17:20:40Z</time>
				</trkpt>
				<trkpt lat="47.752130" lon="3.538560">
					<ele>160</ele>
					<time>2018-02-17T17:21:40Z</time>
				</trkpt>
				<trkpt lat="47.751730" lon="3.537690">
					<ele>167</ele>
					<time>2018-02-17T17:22:40Z</time>
				</trkpt>
				<trkpt lat="47.751520" lon="3.537250">
					<ele>169</ele>
					<time>2018-02-17T17:23:40Z</time>
				</trkpt>
				<trkpt lat="47.750820" lon="3.536160">
					<ele>175</ele>
					<time>2018-02-17T17:24:40Z</time>
				</trkpt>
				<trkpt lat="47.749730" lon="3.534940">
					<ele>180</ele>
					<time>2018-02-17T17:25:40Z</time>
				</trkpt>
				<trkpt lat="47.749110" lon="3.534220">
					<ele>184</ele>
					<time>2018-02-17T17:26:40Z</time>
				</trkpt>
				<trkpt lat="47.747570" lon="3.532830">
					<ele>189</ele>
					<time>2018-02-17T17:27:40Z</time>
				</trkpt>
				<trkpt lat="47.745910" lon="3.531310">
					<ele>192</ele>
					<time>2018-02-17T17:28:40Z</time>
				</trkpt>
				<trkpt lat="47.745080" lon="3.530530">
					<ele>191</ele>
					<time>2018-02-17T17:29:40Z</time>
				</trkpt>
				<trkpt lat="47.745640" lon="3.529290">
					<ele>195</ele>
					<time>2018-02-17T17:30:40Z</time>
				</trkpt>
				<trkpt lat="47.745720" lon="3.528910">
					<ele>195</ele>
					<time>2018-02-17T17:31:40Z</time>
				</trkpt>
				<trkpt lat="47.745880" lon="3.528610">
					<ele>195</ele>
					<time>2018-02-17T17:32:40Z</time>
				</trkpt>
				<trkpt lat="47.746400" lon="3.528740">
					<ele>194</ele>
					<time>2018-02-17T17:33:40Z</time>
				</trkpt>
				<trkpt lat="47.746990" lon="3.527390">
					<ele>191</ele>
					<time>2018-02-17T17:34:40Z</time>
				</trkpt>
				<trkpt lat="47.747380" lon="3.527130">
					<ele>190</ele>
					<time>2018-02-17T17:35:40Z</time>
				</trkpt>
				<trkpt lat="47.748220" lon="3.526530">
					<ele>193</ele>
					<time>2018-02-17T17:36:40Z</time>
				</trkpt>
				<trkpt lat="47.748460" lon="3.526110">
					<ele>194</ele>
					<time>2018-02-17T17:37:40Z</time>
				</trkpt>
				<trkpt lat="47.748810" lon="3.525470">
					<ele>194</ele>
					<time>2018-02-17T17:38:40Z</time>
				</trkpt>
				<trkpt lat="47.748980" lon="3.524930">
					<ele>194</ele>
					<time>2018-02-17T17:39:40Z</time>
				</trkpt>
				<trkpt lat="47.749140" lon="3.524130">
					<ele>195</ele>
					<time>2018-02-17T17:40:40Z</time>
				</trkpt>
				<trkpt lat="47.749300" lon="3.523310">
					<ele>195</ele>
					<time>2018-02-17T17:41:40Z</time>
				</trkpt>
				<trkpt lat="47.749500" lon="3.522700">
					<ele>194</ele>
					<time>2018-02-17T17:42:40Z</time>
				</trkpt>
				<trkpt lat="47.750520" lon="3.520980">
					<ele>189</ele>
					<time>2018-02-17T17:43:40Z</time>
				</trkpt>
				<trkpt lat="47.750580" lon="3.520910">
					<ele>189</ele>
					<time>2018-02-17T17:44:40Z</time>
				</trkpt>
				<trkpt lat="47.750270" lon="3.519790">
					<ele>195</ele>
					<time>2018-02-17T17:45:40Z</time>
				</trkpt>
				<trkpt lat="47.751400" lon="3.517340">
					<ele>209</ele>
					<time>2018-02-17T17:46:40Z</time>
				</trkpt>
				<trkpt lat="47.751760" lon="3.517750">
					<ele>207</ele>
					<time>2018-02-17T17:47:40Z</time>
				</trkpt>
				<trkpt lat="47.752670" lon="3.518460">
					<ele>207</ele>
					<time>2018-02-17T17:48:40Z</time>
				</trkpt>
				<trkpt lat="47.753750" lon="3.519260">
					<ele>207</ele>
					<time>2018-02-17T17:49:40Z</time>
				</trkpt>
				<trkpt lat="47.755180" lon="3.520240">
					<ele>208</ele>
					<time>2018-02-17T17:50:40Z</time>
				</trkpt>
				<trkpt lat="47.755360" lon="3.520220">
					<ele>208</ele>
					<time>2018-02-17T17:51:40Z</time>
				</trkpt>
				<trkpt lat="47.755480" lon="3.519950">
					<ele>208</ele>
					<time>2018-02-17T17:52:40Z</time>
				</trkpt>
				<trkpt lat="47.756640" lon="3.515730">
					<ele>196</ele>
					<time>2018-02-17T17:53:40Z</time>
				</trkpt>
				<trkpt lat="47.757420" lon="3.513260">
					<ele>185</ele>
					<time>2018-02-17T17:54:40Z</time>
				</trkpt>
				<trkpt lat="47.758440" lon="3.511100">
					<ele>179</ele>
					<time>2018-02-17T17:55:40Z</time>
				</trkpt>
				<trkpt lat="47.758040" lon="3.510530">
					<ele>180</ele>
					<time>2018-02-17T17:56:40Z</time>
				</trkpt>
				<trkpt lat="47.757940" lon="3.510450">
					<ele>180</ele>
					<time>2018-02-17T17:57:40Z</time>
				</trkpt>
				<trkpt lat="47.757740" lon="3.511000">
					<ele>180</ele>
					<time>2018-02-17T17:58:40Z</time>
				</trkpt>
				<trkpt lat="47.757380" lon="3.510720">
					<ele>181</ele>
					<time>2018-02-17T17:59:40Z</time>
				</trkpt>
				<trkpt lat="47.756750" lon="3.510280">
					<ele>181</ele>
					<time>2018-02-17T18:00:40Z</time>
				</trkpt>
				<trkpt lat="47.756080" lon="3.511980">
					<ele>185</ele>
					<time>2018-02-17T18:01:40Z</time>
				</trkpt>
				<trkpt lat="47.755950" lon="3.511960">
					<ele>185</ele>
					<time>2018-02-17T18:02:40Z</time>
				</trkpt>
				<trkpt lat="47.753900" lon="3.510220">
					<ele>187</ele>
					<time>2018-02-17T18:03:40Z</time>
				</trkpt>
				<trkpt lat="47.753610" lon="3.509970">
					<ele>188</ele>
					<time>2018-02-17T18:04:40Z</time>
				</trkpt>
				<trkpt lat="47.752410" lon="3.508980">
					<ele>189</ele>
					<time>2018-02-17T18:05:40Z</time>
				</trkpt>
				<trkpt lat="47.751950" lon="3.507810">
					<ele>189</ele>
					<time>2018-02-17T18:06:40Z</time>
				</trkpt>
				<trkpt lat="47.750320" lon="3.506590">
					<ele>194</ele>
					<time>2018-02-17T18:07:40Z</time>
				</trkpt>
				<trkpt lat="47.750120" lon="3.506440">
					<ele>194</ele>
					<time>2018-02-17T18:08:40Z</time>
				</trkpt>
				<trkpt lat="47.749920" lon="3.506330">
					<ele>195</ele>
					<time>2018-02-17T18:09:40Z</time>
				</trkpt>
				<trkpt lat="47.747670" lon="3.505210">
					<ele>196</ele>
					<time>2018-02-17T18:10:40Z</time>
				</trkpt>
				<trkpt lat="47.747760" lon="3.504950">
					<ele>195</ele>
					<time>2018-02-17T18:11:40Z</time>
				</trkpt>
				<trkpt lat="47.748160" lon="3.504230">
					<ele>191</ele>
					<time>2018-02-17T18:12:40Z</time>
				</trkpt>
				<trkpt lat="47.748330" lon="3.503750">
					<ele>188</ele>
					<time>2018-02-17T18:13:40Z</time>
				</trkpt>
				<trkpt lat="47.748550" lon="3.502880">
					<ele>184</ele>
					<time>2018-02-17T18:14:40Z</time>
				</trkpt>
				<trkpt lat="47.748650" lon="3.502220">
					<ele>180</ele>
					<time>2018-02-17T18:15:40Z</time>
				</trkpt>
				<trkpt lat="47.749010" lon="3.500870">
					<ele>173</ele>
					<time>2018-02-17T18:16:40Z</time>
				</trkpt>
				<trkpt lat="47.749110" lon="3.500630">
					<ele>171</ele>
					<time>2018-02-17T18:17:40Z</time>
				</trkpt>
				<trkpt lat="47.749680" lon="3.499820">
					<ele>165</ele>
					<time>2018-02-17T18:18:40Z</time>
				</trkpt>
				<trkpt lat="47.749920" lon="3.499380">
					<ele>162</ele>
					<time>2018-02-17T18:19:40Z</time>
				</trkpt>
				<trkpt lat="47.750800" lon="3.497410">
					<ele>159</ele>
					<time>2018-02-17T18:20:40Z</time>
				</trkpt>
				<trkpt lat="47.751190" lon="3.496300">
					<ele>161</ele>
					<time>2018-02-17T18:21:40Z</time>
				</trkpt>
				<trkpt lat="47.751850" lon="3.494110">
					<ele>172</ele>
					<time>2018-02-17T18:22:40Z</time>
				</trkpt>
				<trkpt lat="47.751620" lon="3.493790">
					<ele>172</ele>
					<time>2018-02-17T18:23:40Z</time>
				</trkpt>
				<trkpt lat="47.751440" lon="3.494160">
					<ele>172</ele>
					<time>2018-02-17T18:24:40Z</time>
				</trkpt>
				<trkpt lat="47.751280" lon="3.494170">
					<ele>172</ele>
					<time>2018-02-17T18:25:40Z</time>
				</trkpt>
				<trkpt lat="47.750480" lon="3.493380">
					<ele>172</ele>
					<time>2018-02-17T18:26:40Z</time>
				</trkpt>
				<trkpt lat="47.749810" lon="3.492160">
					<ele>172</ele>
					<time>2018-02-17T18:27:40Z</time>
				</trkpt>
				<trkpt lat="47.749730" lon="3.489760">
					<ele>175</ele>
					<time>2018-02-17T18:28:40Z</time>
				</trkpt>
				<trkpt lat="47.749820" lon="3.489620">
					<ele>175</ele>
					<time>2018-02-17T18:29:40Z</time>
				</trkpt>
				<trkpt lat="47.750480" lon="3.488050">
					<ele>176</ele>
					<time>2018-02-17T18:30:40Z</time>
				</trkpt>
				<trkpt lat="47.750740" lon="3.487350">
					<ele>175</ele>
					<time>2018-02-17T18:31:40Z</time>
				</trkpt>
				<trkpt lat="47.750540" lon="3.487050">
					<ele>175</ele>
					<time>2018-02-17T18:32:40Z</time>
				</trkpt>
				<trkpt lat="47.749350" lon="3.485360">
					<ele>177</ele>
					<time>2018-02-17T18:33:40Z</time>
				</trkpt>
				<trkpt lat="47.748970" lon="3.484870">
					<ele>179</ele>
					<time>2018-02-17T18:34:40Z</time>
				</trkpt>
				<trkpt lat="47.748660" lon="3.485690">
					<ele>179</ele>
					<time>2018-02-17T18:35:40Z</time>
				</trkpt>		</trkseg>
	</trk>
</gpx>



Partager le fichier

Télécharger 8341084-track-1518888940-272.gpx

Télécharger le fichier (28 Ko)